Time;durP1;ratioP1;P1;durP2;ratioP2;P2;SDS_P1;SDS_P2;PMS_P1;PMS_P2;Temp;Humidity;BMP_temperature;BMP_pressure;BME280_temperature;BME280_humidity;BME280_pressure;Samples;Min_cycle;Max_cycle;Signal;HPM_P1;HPM_P2
2024/02/08 18:09:28;;;;;;;;;;;;;;;8.34;51.75;99889.02;106614;1254;76316;-88
2024/02/08 18:12:13;;;;;;;;;;;;;;;8.36;51.68;99897.25;106798;1254;71432;-89
2024/02/08 18:15:00;;;;;;;;;;;;;;;8.36;51.72;99908.57;106602;1257;74741;-88
2024/02/08 18:17:44;;;;;;;;;;;;;;;8.59;51.13;99914.88;106599;1251;61285;-87
2024/02/08 18:20:29;;;;;;;;;;;;;;;8.64;51.26;99925.10;107203;1254;61366;-88
2024/02/08 18:23:18;;;;;;;;;;;;;;;8.59;51.23;99925.45;106638;1254;76776;-87
2024/02/08 18:26:03;;;;;;;;;;;;;;;8.55;51.24;99928.73;106504;1257;69502;-87
2024/02/08 18:28:44;;;;;;;;;;;;;;;8.68;50.94;99932.76;106557;1256;74285;-88
2024/02/08 18:31:25;;;;;;;;;;;;;;;8.50;51.19;99940.67;106276;1254;61681;-89
2024/02/08 18:34:08;;;;;;;;;;;;;;;8.32;51.88;99947.34;106800;1254;61603;-90
2024/02/08 18:36:50;;;;;;;;;;;;;;;8.31;52.03;99954.15;106457;1254;76077;-88
2024/02/08 18:39:32;;;;;;;;;;;;;;;8.32;51.98;99953.77;106567;1254;70509;-88
2024/02/08 18:42:13;;;;;;;;;;;;;;;8.40;51.67;99957.48;106463;1257;72842;-87
2024/02/08 18:44:53;;;;;;;;;;;;;;;8.66;51.20;99963.44;106431;1253;59591;-88
2024/02/08 18:47:33;;;;;;;;;;;;;;;8.46;51.75;99966.72;106639;1254;62138;-88
2024/02/08 18:50:07;;;;;;;;;;;;;;;8.38;52.12;99973.05;106467;1260;74648;-87
2024/02/08 18:52:50;;;;;;;;;;;;;;;8.36;52.09;99977.45;106533;1254;69625;-88
2024/02/08 18:55:56;;;;;;;;;;;;;;;8.28;52.26;99974.63;106576;1253;75023;-89
2024/02/08 18:58:33;;;;;;;;;;;;;;;8.14;52.77;99972.64;106633;1253;61288;-87
2024/02/08 19:01:07;;;;;;;;;;;;;;;8.14;52.98;99973.20;106509;1254;61302;-89
2024/02/08 19:03:46;;;;;;;;;;;;;;;8.21;52.98;99974.43;106540;1253;75321;-86
2024/02/08 19:06:26;;;;;;;;;;;;;;;8.36;52.97;99966.61;106909;1257;69124;-87
2024/02/08 19:09:07;;;;;;;;;;;;;;;8.35;53.30;99960.73;106456;1254;75037;-88
2024/02/08 19:11:41;;;;;;;;;;;;;;;8.31;53.63;99963.63;106532;1257;61346;-88
2024/02/08 19:14:16;;;;;;;;;;;;;;;8.10;54.63;99958.28;106757;1257;61272;-89
2024/02/08 19:16:58;;;;;;;;;;;;;;;7.98;55.32;99959.23;106501;1254;76870;-86
2024/02/08 19:19:40;;;;;;;;;;;;;;;7.83;55.78;99955.31;106796;1259;69529;-87
2024/02/08 19:22:17;;;;;;;;;;;;;;;7.93;55.44;99961.13;106750;1257;73997;-89
2024/02/08 19:24:51;;;;;;;;;;;;;;;7.96;55.10;99956.56;106733;1254;61696;-88
2024/02/08 19:27:33;;;;;;;;;;;;;;;7.78;55.73;99961.03;106973;1253;61487;-87
2024/02/08 19:30:08;;;;;;;;;;;;;;;7.68;56.16;99961.41;107024;1255;76608;-87
2024/02/08 19:32:36;;;;;;;;;;;;;;;7.63;56.49;99959.89;106569;1254;69092;-87
2024/02/08 19:35:09;;;;;;;;;;;;;;;7.74;56.14;99966.30;106581;1254;74829;-88
2024/02/08 19:37:46;;;;;;;;;;;;;;;7.75;56.26;99966.69;106632;1254;61304;-87
2024/02/08 19:40:20;;;;;;;;;;;;;;;8.09;55.41;99973.73;106560;1252;62190;-86
2024/02/08 19:42:49;;;;;;;;;;;;;;;8.04;55.04;99973.86;106872;1256;75543;-85
2024/02/08 19:45:31;;;;;;;;;;;;;;;7.62;56.31;99977.18;106691;1254;68284;-85
2024/02/08 19:48:10;;;;;;;;;;;;;;;7.57;56.95;99973.64;106598;1255;74994;-85
2024/02/08 19:50:46;;;;;;;;;;;;;;;7.47;57.41;99967.66;106687;1253;59659;-85
2024/02/08 19:53:27;;;;;;;;;;;;;;;7.38;57.76;99964.39;106626;1253;61438;-85
2024/02/08 19:55:56;;;;;;;;;;;;;;;7.48;58.12;99957.88;106727;1257;76682;-85
2024/02/08 19:58:33;;;;;;;;;;;;;;;7.90;56.83;99957.27;106533;1251;70343;-85
2024/02/08 20:01:09;;;;;;;;;;;;;;;7.95;56.62;99964.27;107362;1253;74674;-86
2024/02/08 20:03:47;;;;;;;;;;;;;;;8.00;56.55;99972.23;106534;1253;61466;-85
2024/02/08 20:06:21;;;;;;;;;;;;;;;8.00;56.64;99974.56;106619;1253;61821;-86
2024/02/08 20:08:56;;;;;;;;;;;;;;;7.90;56.89;99976.54;106586;1253;76518;-85
2024/02/08 20:11:24;;;;;;;;;;;;;;;7.91;57.28;99968.97;106696;1256;71004;-85
2024/02/08 20:14:06;;;;;;;;;;;;;;;7.97;56.97;99967.88;106479;1252;74823;-85
2024/02/08 20:16:37;;;;;;;;;;;;;;;7.90;57.22;99972.98;107294;1252;61903;-86
2024/02/08 20:19:13;;;;;;;;;;;;;;;7.73;58.03;99976.92;106545;1257;60069;-85
2024/02/08 20:21:43;;;;;;;;;;;;;;;7.55;58.95;99977.73;106624;1253;74430;-86
2024/02/08 20:24:19;;;;;;;;;;;;;;;7.43;59.62;99973.20;106623;1254;68589;-84
2024/02/08 20:26:47;;;;;;;;;;;;;;;7.76;58.64;99978.27;106627;1257;72960;-85
2024/02/08 20:29:23;;;;;;;;;;;;;;;7.75;58.18;99973.21;106737;1253;62864;-85
2024/02/08 20:31:51;;;;;;;;;;;;;;;7.65;58.71;99979.09;106796;1253;61213;-84
2024/02/08 20:34:25;;;;;;;;;;;;;;;7.76;58.23;99982.79;106540;1257;76733;-85
2024/02/08 20:37:00;;;;;;;;;;;;;;;7.80;57.86;99983.50;106671;1252;69485;-86
2024/02/08 20:39:34;;;;;;;;;;;;;;;7.66;58.25;99977.34;106410;1260;73739;-86
2024/02/08 20:42:12;;;;;;;;;;;;;;;7.74;58.01;99976.54;106628;1257;61220;-86
2024/02/08 20:44:46;;;;;;;;;;;;;;;7.67;58.29;99974.02;106526;1254;61350;-87
2024/02/08 20:47:14;;;;;;;;;;;;;;;7.76;57.83;99975.34;106577;1258;75377;-87
2024/02/08 20:49:42;;;;;;;;;;;;;;;8.00;57.26;99977.61;106697;1257;69275;-86
2024/02/08 20:52:17;;;;;;;;;;;;;;;7.95;57.13;99978.81;106699;1256;73646;-86
2024/02/08 20:54:48;;;;;;;;;;;;;;;7.87;57.15;99975.83;106607;1253;61328;-86
2024/02/08 20:57:17;;;;;;;;;;;;;;;7.83;57.19;99977.62;106509;1253;61188;-86
2024/02/08 20:59:48;;;;;;;;;;;;;;;7.80;57.47;99976.48;106470;1253;75112;-86
2024/02/08 21:02:24;;;;;;;;;;;;;;;7.93;57.33;99973.70;106680;1253;68340;-86
2024/02/08 21:04:53;;;;;;;;;;;;;;;7.73;57.75;99975.39;106494;1253;74836;-85
2024/02/08 21:07:24;;;;;;;;;;;;;;;7.67;58.04;99973.27;106825;1253;61407;-86
2024/02/08 21:10:00;;;;;;;;;;;;;;;7.61;58.42;99970.77;106616;1253;60031;-85
2024/02/08 21:12:34;;;;;;;;;;;;;;;7.60;58.48;99974.96;106689;1253;74778;-85
2024/02/08 21:15:03;;;;;;;;;;;;;;;7.28;59.76;99977.63;106572;1253;68447;-87
2024/02/08 21:17:34;;;;;;;;;;;;;;;7.45;59.90;99977.66;107109;1253;71851;-87
2024/02/08 21:20:08;;;;;;;;;;;;;;;7.73;58.72;99976.97;106643;1252;61349;-87
2024/02/08 21:22:42;;;;;;;;;;;;;;;7.85;58.14;99978.48;106437;1258;61554;-88
2024/02/08 21:25:18;;;;;;;;;;;;;;;7.83;58.14;99972.45;106442;1252;74617;-87
2024/02/08 21:27:52;;;;;;;;;;;;;;;7.84;58.20;99976.65;106811;1252;69029;-88
2024/02/08 21:30:27;;;;;;;;;;;;;;;7.85;58.19;99975.83;106403;1252;72715;-87
2024/02/08 21:32:55;;;;;;;;;;;;;;;7.73;58.37;99974.69;106499;1253;61379;-86
2024/02/08 21:35:29;;;;;;;;;;;;;;;7.69;58.75;99973.11;106453;1253;61155;-87
2024/02/08 21:37:59;;;;;;;;;;;;;;;7.74;58.65;99973.77;106883;1253;74868;-87
2024/02/08 21:40:33;;;;;;;;;;;;;;;7.86;58.27;99981.00;106538;1255;68436;-86
2024/02/08 21:43:07;;;;;;;;;;;;;;;7.63;59.02;99979.68;106449;1257;72732;-86
2024/02/08 21:45:42;;;;;;;;;;;;;;;7.68;59.17;99980.84;106468;1253;61156;-87
2024/02/08 21:48:16;;;;;;;;;;;;;;;7.93;58.23;99980.11;106703;1255;61279;-86
2024/02/08 21:50:51;;;;;;;;;;;;;;;8.07;57.69;99979.45;107652;1252;74579;-88
2024/02/08 21:53:26;;;;;;;;;;;;;;;7.99;57.80;99978.87;106827;1253;68997;-89
2024/02/08 21:55:55;;;;;;;;;;;;;;;7.91;58.17;99977.46;106416;1253;72732;-86
2024/02/08 21:58:30;;;;;;;;;;;;;;;8.04;57.71;99980.88;106391;1253;61399;-86
2024/02/08 22:01:04;;;;;;;;;;;;;;;8.14;57.17;99984.07;106843;1253;61274;-87
2024/02/08 22:03:56;;;;;;;;;;;;;;;8.16;57.18;99984.07;106499;1254;74707;-88
2024/02/08 22:06:23;;;;;;;;;;;;;;;8.23;56.76;99981.13;106906;1253;68400;-89
2024/02/08 22:08:58;;;;;;;;;;;;;;;8.23;56.74;99977.30;107404;1256;72316;-87
2024/02/08 22:11:34;;;;;;;;;;;;;;;8.08;57.30;99983.15;106486;1255;61352;-88
2024/02/08 22:14:08;;;;;;;;;;;;;;;8.16;57.11;99977.05;106841;1258;61160;-87
2024/02/08 22:16:36;;;;;;;;;;;;;;;8.23;56.72;99976.05;106679;1252;74738;-87
2024/02/08 22:19:13;;;;;;;;;;;;;;;8.17;56.83;99971.33;106557;1256;68390;-86
2024/02/08 22:21:47;;;;;;;;;;;;;;;8.12;57.09;99972.70;107067;1254;71197;-87
2024/02/08 22:24:21;;;;;;;;;;;;;;;8.10;57.37;99973.48;106614;1254;61282;-88
2024/02/08 22:26:51;;;;;;;;;;;;;;;8.04;57.66;99976.89;106607;1253;61277;-87
2024/02/08 22:29:27;;;;;;;;;;;;;;;8.06;58.00;99969.50;106906;1253;74396;-87
2024/02/08 22:32:01;;;;;;;;;;;;;;;8.08;57.87;99970.52;107388;1252;68419;-88
2024/02/08 22:34:32;;;;;;;;;;;;;;;8.11;57.62;99969.21;106931;1252;71377;-87
2024/02/08 22:37:04;;;;;;;;;;;;;;;8.06;57.86;99962.48;106497;1253;61331;-86
2024/02/08 22:39:38;;;;;;;;;;;;;;;8.07;57.82;99961.77;106439;1255;61173;-87
2024/02/08 22:42:12;;;;;;;;;;;;;;;8.02;57.99;99960.08;106474;1253;74698;-85
2024/02/08 22:44:41;;;;;;;;;;;;;;;8.06;58.01;99956.54;106699;1253;68750;-86
2024/02/08 22:47:15;;;;;;;;;;;;;;;7.98;58.21;99953.84;107081;1253;72646;-86
2024/02/08 22:49:48;;;;;;;;;;;;;;;7.98;58.46;99956.77;106453;1256;61334;-86
2024/02/08 22:52:22;;;;;;;;;;;;;;;7.69;59.45;99958.20;106659;1253;59944;-88
2024/02/08 22:54:50;;;;;;;;;;;;;;;7.69;59.77;99960.98;106727;1254;72537;-87
2024/02/08 22:57:24;;;;;;;;;;;;;;;7.83;59.49;99949.61;106625;1253;68425;-86
2024/02/08 23:00:00;;;;;;;;;;;;;;;7.93;59.24;99947.80;106521;1253;71090;-87
2024/02/08 23:02:38;;;;;;;;;;;;;;;8.03;59.04;99942.67;106712;1257;61157;-87
2024/02/08 23:05:06;;;;;;;;;;;;;;;8.06;58.80;99936.02;106889;1253;61266;-87
2024/02/08 23:07:42;;;;;;;;;;;;;;;8.08;59.03;99935.91;106528;1253;73383;-88
2024/02/08 23:10:19;;;;;;;;;;;;;;;8.09;58.78;99932.64;106861;1252;67425;-87
2024/02/08 23:12:48;;;;;;;;;;;;;;;8.30;58.23;99932.15;106596;1253;72691;-86
2024/02/08 23:15:21;;;;;;;;;;;;;;;8.19;58.24;99933.27;106549;1253;61344;-86
2024/02/08 23:17:57;;;;;;;;;;;;;;;7.95;59.28;99930.13;106540;1253;61427;-86
2024/02/08 23:20:31;;;;;;;;;;;;;;;7.96;59.66;99926.69;106393;1253;75932;-86
2024/02/08 23:22:59;;;;;;;;;;;;;;;7.95;59.49;99927.61;106577;1254;67762;-87
2024/02/08 23:25:33;;;;;;;;;;;;;;;7.96;59.78;99925.48;106871;1253;72670;-88
2024/02/08 23:28:07;;;;;;;;;;;;;;;7.96;59.50;99929.58;106342;1253;249901;-86
2024/02/08 23:30:43;;;;;;;;;;;;;;;7.96;59.85;99925.98;106639;1253;61478;-86
2024/02/08 23:33:13;;;;;;;;;;;;;;;7.89;60.10;99922.02;106680;1252;74601;-86
2024/02/08 23:35:44;;;;;;;;;;;;;;;7.95;60.19;99919.50;106670;1252;68915;-87
2024/02/08 23:38:18;;;;;;;;;;;;;;;7.94;60.21;99919.71;106352;1256;73137;-86
2024/02/08 23:40:47;;;;;;;;;;;;;;;7.90;60.35;99922.71;106805;1253;61344;-88
2024/02/08 23:43:17;;;;;;;;;;;;;;;7.73;61.44;99922.48;106436;1253;61321;-88
2024/02/08 23:45:51;;;;;;;;;;;;;;;7.65;61.78;99916.81;106546;1253;74688;-87
2024/02/08 23:48:26;;;;;;;;;;;;;;;7.52;62.48;99907.25;106479;1252;68395;-88
2024/02/08 23:50:53;;;;;;;;;;;;;;;7.48;62.98;99913.13;106634;1253;71419;-88
2024/02/08 23:53:21;;;;;;;;;;;;;;;7.49;63.04;99925.36;106683;1252;61389;-85
2024/02/08 23:55:54;;;;;;;;;;;;;;;7.55;62.63;99926.77;106750;1254;61331;-88
2024/02/08 23:58:28;;;;;;;;;;;;;;;7.59;62.51;99920.84;106747;1253;75653;-85
